CFBEE CYPS-CYLI
Flight info
| Callsign | CFBEE |
|---|---|
| Flight time | 0h 25m |
| Altitude | 7000 |
| Route | DCT |
| Aircraft | C208/L-SDFGR/C |
Departure
| Time | 2026-04-15 15:37 |
|---|---|
| Airport | Pemberton Regional Airport (CYPS) |
Arrival
| Time | 2026-04-15 16:02 |
|---|---|
| Airport | Lillooet Airport (CYLI) |
| Time | Latitude | Longitude | Altitude | Speed | Heading |
|---|---|---|---|---|---|
| 2026-04-15 15:30 | 50.30316 | -122.73967 | 678 ft | 0 kts | 175° |
| 2026-04-15 15:35 | 50.30312 | -122.73967 | 678 ft | 4 kts | 174° |
| 2026-04-15 15:35 | 50.30261 | -122.73996 | 677 ft | 13 kts | 218° |
| 2026-04-15 15:35 | 50.30205 | -122.74094 | 676 ft | 21 kts | 265° |
| 2026-04-15 15:36 | 50.30183 | -122.74368 | 675 ft | 29 kts | 261° |
| 2026-04-15 15:36 | 50.30177 | -122.74605 | 677 ft | 12 kts | 243° |
| 2026-04-15 15:36 | 50.30171 | -122.74469 | 676 ft | 28 kts | 83° |
| 2026-04-15 15:36 | 50.30212 | -122.73893 | 677 ft | 76 kts | 84° |
| 2026-04-15 15:37 | 50.30299 | -122.72928 | 778 ft | 97 kts | 79° |
| 2026-04-15 15:37 | 50.30444 | -122.71839 | 956 ft | 109 kts | 74° |
| 2026-04-15 15:37 | 50.30790 | -122.70799 | 1285 ft | 106 kts | 45° |
| 2026-04-15 15:37 | 50.31429 | -122.70265 | 1557 ft | 110 kts | 4° |
| 2026-04-15 15:38 | 50.32194 | -122.70503 | 1803 ft | 114 kts | 342° |
| 2026-04-15 15:38 | 50.32968 | -122.70798 | 2095 ft | 115 kts | 345° |
| 2026-04-15 15:38 | 50.33754 | -122.71107 | 2370 ft | 118 kts | 344° |
| 2026-04-15 15:38 | 50.34559 | -122.71433 | 2636 ft | 121 kts | 343° |
| 2026-04-15 15:39 | 50.35379 | -122.71767 | 2896 ft | 123 kts | 343° |
| 2026-04-15 15:39 | 50.36213 | -122.72105 | 3153 ft | 125 kts | 346° |
| 2026-04-15 15:39 | 50.37090 | -122.72073 | 3403 ft | 128 kts | 5° |
| 2026-04-15 15:39 | 50.37981 | -122.71899 | 3655 ft | 130 kts | 10° |
| 2026-04-15 15:40 | 50.38858 | -122.71571 | 3925 ft | 129 kts | 12° |
| 2026-04-15 15:40 | 50.39722 | -122.71250 | 4198 ft | 126 kts | 12° |
| 2026-04-15 15:40 | 50.40424 | -122.70500 | 4445 ft | 128 kts | 62° |
| 2026-04-15 15:40 | 50.40430 | -122.69147 | 4713 ft | 128 kts | 110° |
| 2026-04-15 15:41 | 50.40039 | -122.67905 | 4987 ft | 128 kts | 122° |
| 2026-04-15 15:41 | 50.39568 | -122.66724 | 5267 ft | 128 kts | 121° |
| 2026-04-15 15:41 | 50.39098 | -122.65539 | 5546 ft | 128 kts | 122° |
| 2026-04-15 15:41 | 50.38630 | -122.64372 | 5848 ft | 124 kts | 122° |
| 2026-04-15 15:42 | 50.38259 | -122.63200 | 6183 ft | 118 kts | 95° |
| 2026-04-15 15:42 | 50.38255 | -122.61953 | 6516 ft | 112 kts | 90° |
| 2026-04-15 15:42 | 50.38244 | -122.60763 | 6840 ft | 106 kts | 90° |
| 2026-04-15 15:42 | 50.38238 | -122.59637 | 7156 ft | 100 kts | 89° |
| 2026-04-15 15:43 | 50.38383 | -122.58614 | 7393 ft | 98 kts | 55° |
| 2026-04-15 15:43 | 50.38742 | -122.57668 | 7558 ft | 106 kts | 59° |
| 2026-04-15 15:43 | 50.39119 | -122.56622 | 7726 ft | 116 kts | 59° |
| 2026-04-15 15:43 | 50.39540 | -122.55468 | 7895 ft | 127 kts | 59° |
| 2026-04-15 15:44 | 50.40069 | -122.54303 | 8067 ft | 135 kts | 49° |
| 2026-04-15 15:44 | 50.40680 | -122.53130 | 8226 ft | 143 kts | 50° |
| 2026-04-15 15:44 | 50.41252 | -122.51812 | 8375 ft | 149 kts | 58° |
| 2026-04-15 15:44 | 50.41782 | -122.50385 | 8523 ft | 153 kts | 59° |
| 2026-04-15 15:45 | 50.42323 | -122.48925 | 8661 ft | 156 kts | 59° |
| 2026-04-15 15:45 | 50.42872 | -122.47443 | 8794 ft | 158 kts | 59° |
| 2026-04-15 15:45 | 50.43425 | -122.45948 | 8928 ft | 159 kts | 59° |
| 2026-04-15 15:45 | 50.43985 | -122.44439 | 9057 ft | 160 kts | 59° |
| 2026-04-15 15:46 | 50.44548 | -122.42925 | 9184 ft | 161 kts | 59° |
| 2026-04-15 15:46 | 50.45116 | -122.41395 | 9312 ft | 163 kts | 59° |
| 2026-04-15 15:46 | 50.45684 | -122.39862 | 9437 ft | 162 kts | 59° |
| 2026-04-15 15:46 | 50.46254 | -122.38331 | 9564 ft | 162 kts | 59° |
| 2026-04-15 15:47 | 50.46823 | -122.36798 | 9689 ft | 163 kts | 59° |
| 2026-04-15 15:47 | 50.47393 | -122.35262 | 9814 ft | 163 kts | 59° |
| 2026-04-15 15:47 | 50.47965 | -122.33720 | 9940 ft | 164 kts | 59° |
| 2026-04-15 15:47 | 50.48539 | -122.32173 | 10064 ft | 164 kts | 59° |
| 2026-04-15 15:48 | 50.49115 | -122.30623 | 10189 ft | 165 kts | 59° |
| 2026-04-15 15:48 | 50.49692 | -122.29065 | 10314 ft | 165 kts | 59° |
| 2026-04-15 15:48 | 50.50268 | -122.27509 | 10438 ft | 165 kts | 59° |
| 2026-04-15 15:48 | 50.50848 | -122.25948 | 10496 ft | 168 kts | 59° |
| 2026-04-15 15:49 | 50.51447 | -122.24332 | 10503 ft | 174 kts | 59° |
| 2026-04-15 15:49 | 50.52062 | -122.22669 | 10510 ft | 178 kts | 59° |
| 2026-04-15 15:49 | 50.52692 | -122.20979 | 10511 ft | 180 kts | 59° |
| 2026-04-15 15:49 | 50.53325 | -122.19274 | 10510 ft | 181 kts | 59° |
| 2026-04-15 15:50 | 50.53965 | -122.17558 | 10511 ft | 183 kts | 59° |
| 2026-04-15 15:50 | 50.54609 | -122.15830 | 10508 ft | 183 kts | 59° |
| 2026-04-15 15:50 | 50.55252 | -122.14101 | 10510 ft | 183 kts | 59° |
| 2026-04-15 15:50 | 50.55898 | -122.12368 | 10507 ft | 184 kts | 59° |
| 2026-04-15 15:51 | 50.56543 | -122.10635 | 10507 ft | 183 kts | 59° |
| 2026-04-15 15:51 | 50.57185 | -122.08910 | 10508 ft | 182 kts | 59° |
| 2026-04-15 15:51 | 50.57826 | -122.07184 | 10508 ft | 183 kts | 59° |
| 2026-04-15 15:51 | 50.58459 | -122.05482 | 10509 ft | 183 kts | 59° |
| 2026-04-15 15:52 | 50.59102 | -122.03748 | 10507 ft | 183 kts | 59° |
| 2026-04-15 15:52 | 50.59747 | -122.02017 | 10506 ft | 183 kts | 59° |
| 2026-04-15 15:52 | 50.60392 | -122.00286 | 10506 ft | 184 kts | 59° |
| 2026-04-15 15:52 | 50.61038 | -121.98548 | 10504 ft | 184 kts | 59° |
| 2026-04-15 15:53 | 50.61684 | -121.96809 | 10499 ft | 184 kts | 59° |
| 2026-04-15 15:53 | 50.62328 | -121.95075 | 10503 ft | 183 kts | 59° |
| 2026-04-15 15:53 | 50.62972 | -121.93345 | 10505 ft | 183 kts | 58° |
| 2026-04-15 15:53 | 50.63616 | -121.91612 | 10504 ft | 183 kts | 59° |
| 2026-04-15 15:54 | 50.64245 | -121.89917 | 10253 ft | 171 kts | 59° |
| 2026-04-15 15:54 | 50.65037 | -121.88675 | 9941 ft | 158 kts | 21° |
| 2026-04-15 15:54 | 50.66094 | -121.88570 | 9649 ft | 151 kts | 352° |
| 2026-04-15 15:54 | 50.67120 | -121.88764 | 9359 ft | 147 kts | 352° |
| 2026-04-15 15:55 | 50.68133 | -121.88951 | 9075 ft | 145 kts | 352° |
| 2026-04-15 15:55 | 50.69133 | -121.89137 | 8793 ft | 144 kts | 352° |
| 2026-04-15 15:55 | 50.70126 | -121.89322 | 8515 ft | 143 kts | 352° |
| 2026-04-15 15:55 | 50.71115 | -121.89507 | 8237 ft | 143 kts | 352° |
| 2026-04-15 15:56 | 50.72104 | -121.89692 | 7966 ft | 143 kts | 352° |
| 2026-04-15 15:56 | 50.73088 | -121.89876 | 7686 ft | 142 kts | 352° |
| 2026-04-15 15:56 | 50.74062 | -121.90056 | 7504 ft | 136 kts | 352° |
| 2026-04-15 15:56 | 50.74970 | -121.90234 | 7356 ft | 131 kts | 347° |
| 2026-04-15 15:57 | 50.75666 | -121.91062 | 7135 ft | 130 kts | 292° |
| 2026-04-15 15:57 | 50.75585 | -121.92419 | 6916 ft | 131 kts | 235° |
| 2026-04-15 15:57 | 50.74797 | -121.93110 | 6635 ft | 136 kts | 190° |
| 2026-04-15 15:57 | 50.73854 | -121.93329 | 6357 ft | 138 kts | 189° |
| 2026-04-15 15:58 | 50.72892 | -121.93401 | 6074 ft | 139 kts | 179° |
| 2026-04-15 15:58 | 50.71920 | -121.93388 | 5784 ft | 140 kts | 180° |
| 2026-04-15 15:58 | 50.70951 | -121.93382 | 5487 ft | 138 kts | 182° |
| 2026-04-15 15:58 | 50.70034 | -121.93776 | 5188 ft | 137 kts | 203° |
| 2026-04-15 15:59 | 50.69165 | -121.94330 | 4881 ft | 133 kts | 202° |
| 2026-04-15 15:59 | 50.68300 | -121.94819 | 4571 ft | 132 kts | 188° |
| 2026-04-15 15:59 | 50.67427 | -121.94476 | 4266 ft | 131 kts | 155° |
| 2026-04-15 15:59 | 50.66620 | -121.93892 | 4066 ft | 124 kts | 156° |
| 2026-04-15 16:00 | 50.65864 | -121.93320 | 3866 ft | 117 kts | 154° |
| 2026-04-15 16:00 | 50.65142 | -121.92756 | 3651 ft | 116 kts | 154° |
| 2026-04-15 16:00 | 50.64657 | -121.91785 | 3385 ft | 118 kts | 96° |
| 2026-04-15 16:00 | 50.64685 | -121.90509 | 3207 ft | 113 kts | 89° |
| 2026-04-15 16:01 | 50.64686 | -121.89285 | 2909 ft | 107 kts | 93° |
| 2026-04-15 16:01 | 50.64910 | -121.88360 | 2608 ft | 91 kts | 25° |
| 2026-04-15 16:01 | 50.65523 | -121.88374 | 2186 ft | 95 kts | 349° |
| 2026-04-15 16:01 | 50.66179 | -121.88690 | 1684 ft | 98 kts | 342° |
| 2026-04-15 16:02 | 50.66801 | -121.88975 | 1375 ft | 87 kts | 343° |
| 2026-04-15 16:02 | 50.67147 | -121.89125 | 1320 ft | 60 kts | 345° |
| 2026-04-15 16:02 | 50.67262 | -121.89181 | 1318 ft | 7 kts | 209° |
| 2026-04-15 16:02 | 50.67184 | -121.89147 | 1320 ft | 16 kts | 162° |
| 2026-04-15 16:03 | 50.67066 | -121.89094 | 1321 ft | 17 kts | 164° |
| 2026-04-15 16:03 | 50.67037 | -121.88927 | 1325 ft | 16 kts | 104° |
| 2026-04-15 16:03 | 50.67008 | -121.88875 | 1325 ft | 0 kts | 164° |
| 2026-04-15 16:06 | 50.67004 | -121.88874 | 1325 ft | 3 kts | 179° |
| 2026-04-15 16:06 | 50.67020 | -121.88926 | 1325 ft | 9 kts | 321° |
| 2026-04-15 16:06 | 50.67034 | -121.89020 | 1323 ft | 10 kts | 253° |
| 2026-04-15 16:06 | 50.67039 | -121.89078 | 1322 ft | 0 kts | 343° |
| 2026-04-15 16:07 | 50.67076 | -121.89096 | 1321 ft | 12 kts | 342° |
| 2026-04-15 16:08 | 50.67310 | -121.89198 | 1320 ft | 60 kts | 345° |
| 2026-04-15 16:08 | 50.67835 | -121.89435 | 1375 ft | 90 kts | 341° |
| 2026-04-15 16:08 | 50.68457 | -121.89777 | 1528 ft | 106 kts | 335° |
| 2026-04-15 16:08 | 50.69200 | -121.90223 | 1690 ft | 121 kts | 342° |
| 2026-04-15 16:09 | 50.70042 | -121.90626 | 1867 ft | 131 kts | 341° |
| 2026-04-15 16:09 | 50.70942 | -121.91058 | 2047 ft | 139 kts | 342° |
| 2026-04-15 16:09 | 50.71888 | -121.91512 | 2218 ft | 144 kts | 342° |
| 2026-04-15 16:09 | 50.72864 | -121.91979 | 2386 ft | 149 kts | 342° |
| 2026-04-15 16:10 | 50.73863 | -121.92458 | 2548 ft | 151 kts | 342° |
| 2026-04-15 16:10 | 50.74897 | -121.92794 | 2692 ft | 154 kts | 3° |
| 2026-04-15 16:10 | 50.75854 | -121.92063 | 2835 ft | 157 kts | 41° |
| 2026-04-15 16:10 | 50.76462 | -121.90667 | 2974 ft | 157 kts | 76° |
| 2026-04-15 16:11 | 50.76444 | -121.88943 | 3123 ft | 158 kts | 100° |
| 2026-04-15 16:11 | 50.76128 | -121.87286 | 3270 ft | 159 kts | 122° |
| 2026-04-15 16:11 | 50.75488 | -121.85905 | 3504 ft | 154 kts | 118° |
| 2026-04-15 16:11 | 50.75184 | -121.84302 | 3728 ft | 152 kts | 101° |
| 2026-04-15 16:12 | 50.75026 | -121.82666 | 3961 ft | 149 kts | 94° |
| 2026-04-15 16:12 | 50.74952 | -121.81069 | 4289 ft | 142 kts | 94° |
| 2026-04-15 16:12 | 50.74881 | -121.79554 | 4624 ft | 135 kts | 94° |
| 2026-04-15 16:12 | 50.74816 | -121.78125 | 4994 ft | 126 kts | 92° |
| 2026-04-15 16:13 | 50.74780 | -121.76814 | 5450 ft | 109 kts | 92° |
| 2026-04-15 16:13 | 50.74919 | -121.75850 | 6604 ft | 111 kts | 48° |
| 2026-04-15 16:13 | 50.75399 | -121.74941 | 6602 ft | 102 kts | 52° |
| 2026-04-15 16:13 | 50.75848 | -121.73962 | 6651 ft | 121 kts | 62° |
| 2026-04-15 16:14 | 50.75996 | -121.72587 | 6733 ft | 137 kts | 86° |
| 2026-04-15 16:14 | 50.76106 | -121.71006 | 6826 ft | 150 kts | 81° |
| 2026-04-15 16:14 | 50.76287 | -121.69350 | 6914 ft | 157 kts | 78° |
| 2026-04-15 16:14 | 50.76522 | -121.67577 | 6775 ft | 175 kts | 76° |
| 2026-04-15 16:15 | 50.76853 | -121.65681 | 6692 ft | 181 kts | 72° |
| 2026-04-15 16:15 | 50.77243 | -121.63791 | 6709 ft | 181 kts | 70° |
| 2026-04-15 16:15 | 50.77663 | -121.61919 | 6702 ft | 182 kts | 70° |
| 2026-04-15 16:15 | 50.78105 | -121.60055 | 6738 ft | 180 kts | 68° |
| 2026-04-15 16:16 | 50.78591 | -121.58209 | 6673 ft | 185 kts | 65° |
| 2026-04-15 16:16 | 50.79161 | -121.56392 | 6672 ft | 184 kts | 63° |
| 2026-04-15 16:16 | 50.79673 | -121.54518 | 6592 ft | 188 kts | 68° |
| 2026-04-15 16:16 | 50.80155 | -121.52584 | 6479 ft | 190 kts | 68° |
| 2026-04-15 16:17 | 50.80642 | -121.50647 | 6374 ft | 190 kts | 68° |
| 2026-04-15 16:17 | 50.81131 | -121.48704 | 6275 ft | 191 kts | 68° |
| 2026-04-15 16:17 | 50.81617 | -121.46753 | 6176 ft | 191 kts | 68° |
| 2026-04-15 16:17 | 50.82101 | -121.44806 | 6069 ft | 190 kts | 68° |
| 2026-04-15 16:18 | 50.82595 | -121.42836 | 5844 ft | 195 kts | 68° |
| 2026-04-15 16:18 | 50.83099 | -121.40830 | 5600 ft | 197 kts | 68° |
| 2026-04-15 16:18 | 50.83490 | -121.38924 | 5320 ft | 170 kts | 85° |
| 2026-04-15 16:18 | 50.83173 | -121.37256 | 5033 ft | 154 kts | 128° |
| 2026-04-15 16:19 | 50.82491 | -121.36036 | 4739 ft | 144 kts | 133° |
| 2026-04-15 16:19 | 50.81676 | -121.35044 | 4211 ft | 150 kts | 159° |
| 2026-04-15 16:19 | 50.80750 | -121.34340 | 3777 ft | 148 kts | 149° |
| 2026-04-15 16:19 | 50.80083 | -121.33137 | 3179 ft | 152 kts | 110° |
| 2026-04-15 16:20 | 50.79719 | -121.31699 | 2941 ft | 133 kts | 140° |
| 2026-04-15 16:20 | 50.78965 | -121.31871 | 2658 ft | 109 kts | 223° |
| 2026-04-15 16:20 | 50.78358 | -121.32344 | 2282 ft | 95 kts | 181° |
| 2026-04-15 16:20 | 50.77743 | -121.32187 | 2057 ft | 77 kts | 171° |
| 2026-04-15 16:21 | 50.77511 | -121.32119 | 2053 ft | 12 kts | 153° |
| 2026-04-15 16:21 | 50.77508 | -121.32124 | 2053 ft | 10 kts | 349° |
| 2026-04-15 16:21 | 50.77617 | -121.32156 | 2052 ft | 21 kts | 351° |
| 2026-04-15 16:21 | 50.77786 | -121.32203 | 2058 ft | 28 kts | 348° |
| 2026-04-15 16:22 | 50.77932 | -121.32308 | 2061 ft | 23 kts | 308° |
| 2026-04-15 16:22 | 50.78015 | -121.32432 | 2060 ft | 9 kts | 81° |
| 2026-04-15 16:22 | 50.78007 | -121.32416 | 2060 ft | 0 kts | 158° |
| 2026-04-15 16:26 | 50.78005 | -121.32415 | 2060 ft | 1 kts | 158° |
| 2026-04-15 16:26 | 50.77977 | -121.32393 | 2063 ft | 8 kts | 142° |
| 2026-04-15 16:26 | 50.77934 | -121.32312 | 2061 ft | 6 kts | 127° |
| 2026-04-15 16:26 | 50.77898 | -121.32240 | 2058 ft | 9 kts | 128° |
| 2026-04-15 16:27 | 50.77877 | -121.32225 | 2058 ft | 0 kts | 179° |
| 2026-04-15 16:27 | 50.77769 | -121.32200 | 2057 ft | 39 kts | 169° |
| 2026-04-15 16:28 | 50.77345 | -121.32073 | 2046 ft | 85 kts | 168° |
| 2026-04-15 16:28 | 50.76710 | -121.31785 | 2150 ft | 105 kts | 153° |
| 2026-04-15 16:28 | 50.76286 | -121.30834 | 2368 ft | 116 kts | 99° |
| 2026-04-15 16:28 | 50.76203 | -121.29544 | 2552 ft | 126 kts | 93° |
| 2026-04-15 16:29 | 50.76154 | -121.28080 | 2750 ft | 136 kts | 88° |
| 2026-04-15 16:29 | 50.76157 | -121.26560 | 2941 ft | 142 kts | 85° |
| 2026-04-15 16:29 | 50.76177 | -121.24956 | 3003 ft | 154 kts | 85° |
| 2026-04-15 16:29 | 50.76230 | -121.23221 | 3014 ft | 162 kts | 83° |
| 2026-04-15 16:30 | 50.76329 | -121.21406 | 3013 ft | 169 kts | 82° |
| 2026-04-15 16:30 | 50.76461 | -121.19534 | 3010 ft | 173 kts | 80° |
| 2026-04-15 16:30 | 50.76563 | -121.17671 | 3003 ft | 166 kts | 84° |
| 2026-04-15 16:30 | 50.76586 | -121.15821 | 3012 ft | 171 kts | 87° |
| 2026-04-15 16:31 | 50.76601 | -121.13925 | 3076 ft | 172 kts | 88° |
| 2026-04-15 16:31 | 50.76519 | -121.12044 | 3198 ft | 172 kts | 96° |
| 2026-04-15 16:31 | 50.76289 | -121.10195 | 3347 ft | 171 kts | 100° |
| 2026-04-15 16:31 | 50.76049 | -121.08372 | 3494 ft | 169 kts | 98° |
| 2026-04-15 16:32 | 50.75860 | -121.06549 | 3649 ft | 167 kts | 96° |
| 2026-04-15 16:32 | 50.75674 | -121.04742 | 3803 ft | 166 kts | 96° |
| 2026-04-15 16:32 | 50.75487 | -121.02939 | 3968 ft | 167 kts | 96° |
| 2026-04-15 16:32 | 50.75294 | -121.01113 | 3997 ft | 171 kts | 97° |
| 2026-04-15 16:33 | 50.75102 | -120.99226 | 3995 ft | 177 kts | 96° |
| 2026-04-15 16:33 | 50.74902 | -120.97303 | 4007 ft | 178 kts | 97° |
| 2026-04-15 16:33 | 50.74703 | -120.95364 | 4007 ft | 181 kts | 96° |
| 2026-04-15 16:33 | 50.74487 | -120.93407 | 4004 ft | 181 kts | 97° |
| 2026-04-15 16:34 | 50.74291 | -120.91441 | 4004 ft | 183 kts | 96° |
| 2026-04-15 16:34 | 50.74101 | -120.89468 | 3999 ft | 180 kts | 96° |
| 2026-04-15 16:34 | 50.73912 | -120.87516 | 4000 ft | 180 kts | 97° |
| 2026-04-15 16:34 | 50.73725 | -120.85559 | 3994 ft | 181 kts | 96° |
| 2026-04-15 16:35 | 50.73585 | -120.83596 | 3994 ft | 180 kts | 94° |
| 2026-04-15 16:35 | 50.73447 | -120.81624 | 3990 ft | 181 kts | 95° |
| 2026-04-15 16:35 | 50.73315 | -120.79662 | 3989 ft | 180 kts | 93° |
| 2026-04-15 16:35 | 50.73184 | -120.77736 | 3988 ft | 178 kts | 94° |
| 2026-04-15 16:36 | 50.73064 | -120.75792 | 3981 ft | 178 kts | 94° |
| 2026-04-15 16:36 | 50.72931 | -120.73824 | 3981 ft | 177 kts | 94° |
| 2026-04-15 16:36 | 50.72798 | -120.71885 | 3976 ft | 178 kts | 94° |
| 2026-04-15 16:36 | 50.72548 | -120.70002 | 3972 ft | 178 kts | 103° |
| 2026-04-15 16:37 | 50.72209 | -120.68130 | 3973 ft | 177 kts | 103° |
| 2026-04-15 16:37 | 50.71870 | -120.66253 | 3972 ft | 178 kts | 104° |
| 2026-04-15 16:37 | 50.71535 | -120.64371 | 3969 ft | 177 kts | 103° |
| 2026-04-15 16:37 | 50.71264 | -120.62486 | 3968 ft | 176 kts | 99° |
| 2026-04-15 16:38 | 50.71015 | -120.60598 | 3972 ft | 176 kts | 99° |
| 2026-04-15 16:38 | 50.70756 | -120.58717 | 3969 ft | 176 kts | 99° |
| 2026-04-15 16:38 | 50.70494 | -120.56818 | 3968 ft | 178 kts | 99° |
| 2026-04-15 16:38 | 50.70230 | -120.54874 | 3835 ft | 184 kts | 100° |
| 2026-04-15 16:39 | 50.69971 | -120.52873 | 3670 ft | 188 kts | 100° |
| 2026-04-15 16:39 | 50.69709 | -120.50853 | 3434 ft | 184 kts | 100° |
| 2026-04-15 16:39 | 50.69474 | -120.49011 | 3082 ft | 162 kts | 100° |
| 2026-04-15 16:39 | 50.69265 | -120.47272 | 2567 ft | 161 kts | 98° |
| 2026-04-15 16:40 | 50.69109 | -120.45550 | 2197 ft | 158 kts | 96° |
| 2026-04-15 16:40 | 50.68971 | -120.43893 | 1920 ft | 148 kts | 96° |
| 2026-04-15 16:40 | 50.68879 | -120.42598 | 1824 ft | 132 kts | 93° |
| 2026-04-15 16:40 | 50.68910 | -120.41426 | 1844 ft | 103 kts | 66° |
| 2026-04-15 16:41 | 50.69386 | -120.40787 | 1807 ft | 88 kts | 359° |
| 2026-04-15 16:41 | 50.69817 | -120.41155 | 1736 ft | 70 kts | 281° |
| 2026-04-15 16:41 | 50.69874 | -120.41955 | 1485 ft | 74 kts | 286° |
| 2026-04-15 16:41 | 50.69951 | -120.42471 | 1362 ft | 73 kts | 281° |
| 2026-04-15 16:42 | 50.70059 | -120.43225 | 1177 ft | 69 kts | 283° |
| 2026-04-15 16:42 | 50.70156 | -120.43879 | 1135 ft | 52 kts | 283° |
| 2026-04-15 16:42 | 50.70216 | -120.44262 | 1135 ft | 22 kts | 284° |
| 2026-04-15 16:42 | 50.70310 | -120.44374 | 1133 ft | 23 kts | 20° |
| 2026-04-15 16:43 | 50.70394 | -120.44186 | 1133 ft | 22 kts | 62° |
| 2026-04-15 16:43 | 50.70477 | -120.44015 | 1134 ft | 18 kts | 27° |
| 2026-04-15 16:43 | 50.70541 | -120.43908 | 1135 ft | 17 kts | 98° |
| 2026-04-15 16:43 | 50.70537 | -120.43810 | 1133 ft | 3 kts | 62° |
| 2026-04-15 16:44 | 50.70537 | -120.43809 | 1133 ft | 0 kts | 62° |